sensor_id;sensor_type;location;lat;lon;timestamp;P1;durP1;ratioP1;P2;durP2;ratioP2
5559;SDS011;2803;47.916;8.074;2022-12-07T00:00:52;11.70;;;6.93;;
5559;SDS011;2803;47.916;8.074;2022-12-07T00:03:19;10.87;;;6.97;;
5559;SDS011;2803;47.916;8.074;2022-12-07T00:05:46;10.80;;;6.53;;
5559;SDS011;2803;47.916;8.074;2022-12-07T00:08:12;12.80;;;6.47;;
5559;SDS011;2803;47.916;8.074;2022-12-07T00:10:39;12.40;;;6.63;;
5559;SDS011;2803;47.916;8.074;2022-12-07T00:13:06;11.57;;;6.67;;
5559;SDS011;2803;47.916;8.074;2022-12-07T00:15:34;13.40;;;7.70;;
5559;SDS011;2803;47.916;8.074;2022-12-07T00:18:01;12.83;;;7.40;;
5559;SDS011;2803;47.916;8.074;2022-12-07T00:20:28;11.43;;;5.30;;
5559;SDS011;2803;47.916;8.074;2022-12-07T00:22:55;8.83;;;5.57;;
5559;SDS011;2803;47.916;8.074;2022-12-07T00:25:21;12.10;;;6.20;;
5559;SDS011;2803;47.916;8.074;2022-12-07T00:27:49;9.63;;;6.00;;
5559;SDS011;2803;47.916;8.074;2022-12-07T00:30:16;10.67;;;6.20;;
5559;SDS011;2803;47.916;8.074;2022-12-07T00:32:44;9.07;;;5.57;;
5559;SDS011;2803;47.916;8.074;2022-12-07T00:35:10;9.77;;;5.87;;
5559;SDS011;2803;47.916;8.074;2022-12-07T00:37:37;10.53;;;5.77;;
5559;SDS011;2803;47.916;8.074;2022-12-07T00:40:05;10.80;;;5.60;;
5559;SDS011;2803;47.916;8.074;2022-12-07T00:42:32;10.70;;;6.17;;
5559;SDS011;2803;47.916;8.074;2022-12-07T00:44:59;11.20;;;6.47;;
5559;SDS011;2803;47.916;8.074;2022-12-07T00:47:26;12.73;;;6.47;;
5559;SDS011;2803;47.916;8.074;2022-12-07T00:49:54;9.50;;;6.10;;
5559;SDS011;2803;47.916;8.074;2022-12-07T00:52:21;11.70;;;6.57;;
5559;SDS011;2803;47.916;8.074;2022-12-07T00:54:48;13.10;;;6.37;;
5559;SDS011;2803;47.916;8.074;2022-12-07T00:57:15;11.30;;;6.90;;
5559;SDS011;2803;47.916;8.074;2022-12-07T00:59:41;11.80;;;7.80;;
5559;SDS011;2803;47.916;8.074;2022-12-07T01:02:08;16.93;;;8.37;;
5559;SDS011;2803;47.916;8.074;2022-12-07T01:04:35;13.10;;;8.60;;
5559;SDS011;2803;47.916;8.074;2022-12-07T01:07:03;15.20;;;8.30;;
5559;SDS011;2803;47.916;8.074;2022-12-07T01:09:30;15.80;;;8.40;;
5559;SDS011;2803;47.916;8.074;2022-12-07T01:11:57;18.47;;;8.87;;
5559;SDS011;2803;47.916;8.074;2022-12-07T01:14:24;14.33;;;8.50;;
5559;SDS011;2803;47.916;8.074;2022-12-07T01:16:51;16.10;;;8.33;;
5559;SDS011;2803;47.916;8.074;2022-12-07T01:19:18;18.73;;;10.03;;
5559;SDS011;2803;47.916;8.074;2022-12-07T01:21:45;22.70;;;9.57;;
5559;SDS011;2803;47.916;8.074;2022-12-07T01:24:13;20.17;;;10.23;;
5559;SDS011;2803;47.916;8.074;2022-12-07T01:26:40;17.20;;;9.60;;
5559;SDS011;2803;47.916;8.074;2022-12-07T01:29:07;18.10;;;9.77;;
5559;SDS011;2803;47.916;8.074;2022-12-07T01:31:34;18.33;;;10.40;;
5559;SDS011;2803;47.916;8.074;2022-12-07T01:34:00;18.87;;;10.87;;
5559;SDS011;2803;47.916;8.074;2022-12-07T01:36:28;24.53;;;9.73;;
5559;SDS011;2803;47.916;8.074;2022-12-07T01:38:57;21.47;;;10.33;;
5559;SDS011;2803;47.916;8.074;2022-12-07T01:41:28;19.10;;;9.70;;
5559;SDS011;2803;47.916;8.074;2022-12-07T01:46:43;17.27;;;10.17;;
5559;SDS011;2803;47.916;8.074;2022-12-07T01:49:12;22.03;;;11.33;;
5559;SDS011;2803;47.916;8.074;2022-12-07T01:51:43;19.17;;;9.70;;
5559;SDS011;2803;47.916;8.074;2022-12-07T01:54:12;17.43;;;10.37;;
5559;SDS011;2803;47.916;8.074;2022-12-07T01:56:43;18.07;;;10.50;;
5559;SDS011;2803;47.916;8.074;2022-12-07T01:59:14;19.97;;;11.13;;
5559;SDS011;2803;47.916;8.074;2022-12-07T02:01:42;17.53;;;10.17;;
5559;SDS011;2803;47.916;8.074;2022-12-07T02:04:09;20.13;;;9.80;;
5559;SDS011;2803;47.916;8.074;2022-12-07T02:06:37;19.77;;;10.23;;
5559;SDS011;2803;47.916;8.074;2022-12-07T02:09:04;21.03;;;10.50;;
5559;SDS011;2803;47.916;8.074;2022-12-07T02:11:32;23.27;;;10.37;;
5559;SDS011;2803;47.916;8.074;2022-12-07T02:14:00;20.33;;;11.20;;
5559;SDS011;2803;47.916;8.074;2022-12-07T02:16:29;20.37;;;10.03;;
5559;SDS011;2803;47.916;8.074;2022-12-07T02:19:06;20.83;;;11.17;;
5559;SDS011;2803;47.916;8.074;2022-12-07T02:21:57;19.77;;;10.20;;
5559;SDS011;2803;47.916;8.074;2022-12-07T02:24:40;16.93;;;9.50;;
5559;SDS011;2803;47.916;8.074;2022-12-07T02:27:19;18.70;;;10.03;;
5559;SDS011;2803;47.916;8.074;2022-12-07T02:30:00;20.17;;;9.73;;
5559;SDS011;2803;47.916;8.074;2022-12-07T02:32:29;20.10;;;11.10;;
5559;SDS011;2803;47.916;8.074;2022-12-07T02:35:08;21.10;;;10.60;;
5559;SDS011;2803;47.916;8.074;2022-12-07T02:37:39;22.20;;;10.73;;
5559;SDS011;2803;47.916;8.074;2022-12-07T02:40:10;19.97;;;10.70;;
5559;SDS011;2803;47.916;8.074;2022-12-07T02:42:42;25.77;;;12.23;;
5559;SDS011;2803;47.916;8.074;2022-12-07T02:45:15;25.67;;;11.50;;
5559;SDS011;2803;47.916;8.074;2022-12-07T02:47:46;31.53;;;10.70;;
5559;SDS011;2803;47.916;8.074;2022-12-07T02:50:17;27.57;;;12.13;;
5559;SDS011;2803;47.916;8.074;2022-12-07T02:52:44;30.67;;;12.73;;
5559;SDS011;2803;47.916;8.074;2022-12-07T02:55:11;43.53;;;13.90;;
5559;SDS011;2803;47.916;8.074;2022-12-07T02:57:45;57.47;;;15.33;;
5559;SDS011;2803;47.916;8.074;2022-12-07T03:00:21;56.90;;;15.87;;
5559;SDS011;2803;47.916;8.074;2022-12-07T03:02:50;61.77;;;17.03;;
5559;SDS011;2803;47.916;8.074;2022-12-07T03:05:33;83.23;;;17.40;;
5559;SDS011;2803;47.916;8.074;2022-12-07T03:08:13;94.53;;;16.20;;
5559;SDS011;2803;47.916;8.074;2022-12-07T03:10:50;299.57;;;24.50;;
5559;SDS011;2803;47.916;8.074;2022-12-07T03:13:23;103.17;;;17.63;;
5559;SDS011;2803;47.916;8.074;2022-12-07T03:16:00;187.77;;;20.30;;
5559;SDS011;2803;47.916;8.074;2022-12-07T03:18:33;196.77;;;18.87;;
5559;SDS011;2803;47.916;8.074;2022-12-07T03:21:05;303.70;;;21.60;;
5559;SDS011;2803;47.916;8.074;2022-12-07T03:23:36;263.57;;;20.27;;
5559;SDS011;2803;47.916;8.074;2022-12-07T03:26:06;72.13;;;15.03;;
5559;SDS011;2803;47.916;8.074;2022-12-07T03:28:38;110.13;;;17.47;;
5559;SDS011;2803;47.916;8.074;2022-12-07T03:31:11;99.63;;;17.07;;
5559;SDS011;2803;47.916;8.074;2022-12-07T03:33:44;335.23;;;23.30;;
5559;SDS011;2803;47.916;8.074;2022-12-07T03:36:20;39.33;;;13.50;;
5559;SDS011;2803;47.916;8.074;2022-12-07T03:38:52;148.17;;;16.50;;
5559;SDS011;2803;47.916;8.074;2022-12-07T03:41:23;53.10;;;14.33;;
5559;SDS011;2803;47.916;8.074;2022-12-07T03:43:53;57.13;;;13.20;;
5559;SDS011;2803;47.916;8.074;2022-12-07T03:46:23;46.67;;;13.37;;
5559;SDS011;2803;47.916;8.074;2022-12-07T03:48:59;27.10;;;11.13;;
5559;SDS011;2803;47.916;8.074;2022-12-07T03:51:34;80.03;;;15.60;;
5559;SDS011;2803;47.916;8.074;2022-12-07T03:54:09;83.67;;;14.10;;
5559;SDS011;2803;47.916;8.074;2022-12-07T03:56:39;53.73;;;12.83;;
5559;SDS011;2803;47.916;8.074;2022-12-07T03:59:09;94.73;;;12.53;;
5559;SDS011;2803;47.916;8.074;2022-12-07T04:01:38;113.23;;;13.60;;
5559;SDS011;2803;47.916;8.074;2022-12-07T04:04:08;40.67;;;11.80;;
5559;SDS011;2803;47.916;8.074;2022-12-07T04:06:34;36.90;;;11.77;;
5559;SDS011;2803;47.916;8.074;2022-12-07T04:09:01;27.30;;;11.17;;
5559;SDS011;2803;47.916;8.074;2022-12-07T04:11:29;23.47;;;10.97;;
5559;SDS011;2803;47.916;8.074;2022-12-07T04:13:56;21.90;;;10.80;;
5559;SDS011;2803;47.916;8.074;2022-12-07T04:16:36;24.30;;;11.50;;
5559;SDS011;2803;47.916;8.074;2022-12-07T04:19:04;34.87;;;10.47;;
5559;SDS011;2803;47.916;8.074;2022-12-07T04:21:31;20.97;;;10.27;;
5559;SDS011;2803;47.916;8.074;2022-12-07T04:23:58;21.80;;;9.77;;
5559;SDS011;2803;47.916;8.074;2022-12-07T04:26:24;20.87;;;9.33;;
5559;SDS011;2803;47.916;8.074;2022-12-07T04:28:51;19.20;;;9.20;;
5559;SDS011;2803;47.916;8.074;2022-12-07T04:31:18;20.90;;;9.10;;
5559;SDS011;2803;47.916;8.074;2022-12-07T04:33:46;18.33;;;8.67;;
5559;SDS011;2803;47.916;8.074;2022-12-07T04:36:12;26.23;;;8.90;;
5559;SDS011;2803;47.916;8.074;2022-12-07T04:38:40;19.63;;;9.10;;
5559;SDS011;2803;47.916;8.074;2022-12-07T04:41:07;22.17;;;8.20;;
5559;SDS011;2803;47.916;8.074;2022-12-07T04:43:35;25.20;;;10.10;;
5559;SDS011;2803;47.916;8.074;2022-12-07T04:46:02;16.10;;;7.67;;
5559;SDS011;2803;47.916;8.074;2022-12-07T04:48:29;14.30;;;7.17;;
5559;SDS011;2803;47.916;8.074;2022-12-07T04:50:57;18.67;;;7.70;;
5559;SDS011;2803;47.916;8.074;2022-12-07T04:53:24;17.23;;;6.00;;
5559;SDS011;2803;47.916;8.074;2022-12-07T04:55:52;13.97;;;6.30;;
5559;SDS011;2803;47.916;8.074;2022-12-07T04:58:19;9.10;;;5.47;;
5559;SDS011;2803;47.916;8.074;2022-12-07T05:00:46;7.53;;;4.30;;
5559;SDS011;2803;47.916;8.074;2022-12-07T05:03:14;8.13;;;4.63;;
5559;SDS011;2803;47.916;8.074;2022-12-07T05:05:41;7.67;;;4.30;;
5559;SDS011;2803;47.916;8.074;2022-12-07T05:08:12;7.00;;;4.07;;
5559;SDS011;2803;47.916;8.074;2022-12-07T05:10:39;6.80;;;4.53;;
5559;SDS011;2803;47.916;8.074;2022-12-07T05:13:06;8.10;;;4.83;;
5559;SDS011;2803;47.916;8.074;2022-12-07T05:15:33;5.33;;;3.77;;
5559;SDS011;2803;47.916;8.074;2022-12-07T05:18:00;9.83;;;4.97;;
5559;SDS011;2803;47.916;8.074;2022-12-07T05:20:28;6.10;;;4.20;;
5559;SDS011;2803;47.916;8.074;2022-12-07T05:22:55;11.87;;;4.73;;
5559;SDS011;2803;47.916;8.074;2022-12-07T05:25:24;8.43;;;4.63;;
5559;SDS011;2803;47.916;8.074;2022-12-07T05:27:51;9.50;;;4.63;;
5559;SDS011;2803;47.916;8.074;2022-12-07T05:30:18;8.17;;;4.50;;
5559;SDS011;2803;47.916;8.074;2022-12-07T05:32:45;18.13;;;5.10;;
5559;SDS011;2803;47.916;8.074;2022-12-07T05:35:12;10.10;;;4.10;;
5559;SDS011;2803;47.916;8.074;2022-12-07T05:37:39;13.90;;;5.67;;
5559;SDS011;2803;47.916;8.074;2022-12-07T05:40:09;10.60;;;5.87;;
5559;SDS011;2803;47.916;8.074;2022-12-07T05:42:38;13.93;;;5.97;;
5559;SDS011;2803;47.916;8.074;2022-12-07T05:45:05;12.47;;;5.97;;
5559;SDS011;2803;47.916;8.074;2022-12-07T05:47:33;15.00;;;6.23;;
5559;SDS011;2803;47.916;8.074;2022-12-07T05:50:00;11.23;;;6.27;;
5559;SDS011;2803;47.916;8.074;2022-12-07T05:52:27;10.73;;;4.97;;
5559;SDS011;2803;47.916;8.074;2022-12-07T05:54:54;11.43;;;5.00;;
5559;SDS011;2803;47.916;8.074;2022-12-07T05:57:21;19.10;;;5.47;;
5559;SDS011;2803;47.916;8.074;2022-12-07T05:59:49;13.80;;;5.60;;
5559;SDS011;2803;47.916;8.074;2022-12-07T06:02:16;13.10;;;4.00;;
5559;SDS011;2803;47.916;8.074;2022-12-07T06:04:44;8.77;;;4.87;;
5559;SDS011;2803;47.916;8.074;2022-12-07T06:07:13;23.50;;;6.00;;
5559;SDS011;2803;47.916;8.074;2022-12-07T06:09:42;9.67;;;4.70;;
5559;SDS011;2803;47.916;8.074;2022-12-07T06:12:09;8.40;;;4.57;;
5559;SDS011;2803;47.916;8.074;2022-12-07T06:14:51;22.20;;;6.10;;
5559;SDS011;2803;47.916;8.074;2022-12-07T06:17:18;12.70;;;5.30;;
5559;SDS011;2803;47.916;8.074;2022-12-07T06:19:44;6.60;;;4.30;;
5559;SDS011;2803;47.916;8.074;2022-12-07T06:22:11;9.83;;;4.17;;
5559;SDS011;2803;47.916;8.074;2022-12-07T06:24:39;5.53;;;3.87;;
5559;SDS011;2803;47.916;8.074;2022-12-07T06:27:05;8.20;;;4.30;;
5559;SDS011;2803;47.916;8.074;2022-12-07T06:29:32;7.90;;;4.00;;
5559;SDS011;2803;47.916;8.074;2022-12-07T06:32:01;7.63;;;4.23;;
5559;SDS011;2803;47.916;8.074;2022-12-07T06:34:27;9.83;;;4.37;;
5559;SDS011;2803;47.916;8.074;2022-12-07T06:36:54;6.33;;;3.90;;
5559;SDS011;2803;47.916;8.074;2022-12-07T06:39:21;7.80;;;3.93;;
5559;SDS011;2803;47.916;8.074;2022-12-07T06:41:50;5.43;;;3.63;;
5559;SDS011;2803;47.916;8.074;2022-12-07T06:44:17;9.00;;;4.40;;
5559;SDS011;2803;47.916;8.074;2022-12-07T06:46:44;5.97;;;3.33;;
5559;SDS011;2803;47.916;8.074;2022-12-07T06:49:13;7.97;;;3.70;;
5559;SDS011;2803;47.916;8.074;2022-12-07T06:51:40;7.23;;;4.33;;
5559;SDS011;2803;47.916;8.074;2022-12-07T06:54:07;10.80;;;4.80;;
5559;SDS011;2803;47.916;8.074;2022-12-07T06:56:35;10.50;;;3.83;;
5559;SDS011;2803;47.916;8.074;2022-12-07T06:59:02;10.10;;;4.10;;
5559;SDS011;2803;47.916;8.074;2022-12-07T07:01:30;9.30;;;3.43;;
5559;SDS011;2803;47.916;8.074;2022-12-07T07:03:57;7.63;;;4.03;;
5559;SDS011;2803;47.916;8.074;2022-12-07T07:06:25;13.10;;;4.60;;
5559;SDS011;2803;47.916;8.074;2022-12-07T07:08:52;9.63;;;3.97;;
5559;SDS011;2803;47.916;8.074;2022-12-07T07:11:19;7.17;;;4.20;;
5559;SDS011;2803;47.916;8.074;2022-12-07T07:13:46;5.53;;;3.30;;
5559;SDS011;2803;47.916;8.074;2022-12-07T07:16:14;4.43;;;3.27;;
5559;SDS011;2803;47.916;8.074;2022-12-07T07:18:41;16.10;;;3.83;;
5559;SDS011;2803;47.916;8.074;2022-12-07T07:21:08;8.77;;;4.07;;
5559;SDS011;2803;47.916;8.074;2022-12-07T07:23:37;6.10;;;3.47;;
5559;SDS011;2803;47.916;8.074;2022-12-07T07:26:04;5.90;;;3.00;;
5559;SDS011;2803;47.916;8.074;2022-12-07T07:28:31;9.50;;;3.80;;
5559;SDS011;2803;47.916;8.074;2022-12-07T07:30:58;6.40;;;3.07;;
5559;SDS011;2803;47.916;8.074;2022-12-07T07:33:25;6.37;;;3.27;;
5559;SDS011;2803;47.916;8.074;2022-12-07T07:35:52;8.10;;;3.83;;
5559;SDS011;2803;47.916;8.074;2022-12-07T07:38:23;4.23;;;2.93;;
5559;SDS011;2803;47.916;8.074;2022-12-07T07:40:51;3.17;;;2.20;;
5559;SDS011;2803;47.916;8.074;2022-12-07T07:43:18;3.10;;;2.63;;
5559;SDS011;2803;47.916;8.074;2022-12-07T07:45:45;4.20;;;3.23;;
5559;SDS011;2803;47.916;8.074;2022-12-07T07:48:12;6.97;;;2.97;;
5559;SDS011;2803;47.916;8.074;2022-12-07T07:50:39;3.00;;;1.83;;
5559;SDS011;2803;47.916;8.074;2022-12-07T07:53:06;5.77;;;2.67;;
5559;SDS011;2803;47.916;8.074;2022-12-07T07:55:33;9.60;;;3.83;;
5559;SDS011;2803;47.916;8.074;2022-12-07T07:58:01;4.47;;;2.60;;
5559;SDS011;2803;47.916;8.074;2022-12-07T08:00:28;3.33;;;2.60;;
5559;SDS011;2803;47.916;8.074;2022-12-07T08:02:55;5.23;;;2.70;;
5559;SDS011;2803;47.916;8.074;2022-12-07T08:05:22;3.57;;;2.63;;
5559;SDS011;2803;47.916;8.074;2022-12-07T08:07:48;4.73;;;2.67;;
5559;SDS011;2803;47.916;8.074;2022-12-07T08:10:15;4.37;;;2.50;;
5559;SDS011;2803;47.916;8.074;2022-12-07T08:12:42;5.30;;;3.23;;
5559;SDS011;2803;47.916;8.074;2022-12-07T08:15:25;5.90;;;3.07;;
5559;SDS011;2803;47.916;8.074;2022-12-07T08:17:53;10.30;;;3.20;;
5559;SDS011;2803;47.916;8.074;2022-12-07T08:20:20;3.13;;;2.30;;
5559;SDS011;2803;47.916;8.074;2022-12-07T08:22:47;6.00;;;2.60;;
5559;SDS011;2803;47.916;8.074;2022-12-07T08:25:14;4.87;;;2.93;;
5559;SDS011;2803;47.916;8.074;2022-12-07T08:27:40;4.73;;;2.83;;
5559;SDS011;2803;47.916;8.074;2022-12-07T08:30:07;5.70;;;3.10;;
5559;SDS011;2803;47.916;8.074;2022-12-07T08:32:39;4.00;;;2.57;;
5559;SDS011;2803;47.916;8.074;2022-12-07T08:35:07;5.90;;;3.10;;
5559;SDS011;2803;47.916;8.074;2022-12-07T08:37:35;6.23;;;2.87;;
5559;SDS011;2803;47.916;8.074;2022-12-07T08:40:02;5.13;;;2.80;;
5559;SDS011;2803;47.916;8.074;2022-12-07T08:42:30;4.70;;;2.77;;
5559;SDS011;2803;47.916;8.074;2022-12-07T08:45:03;4.27;;;2.60;;
5559;SDS011;2803;47.916;8.074;2022-12-07T08:47:32;8.53;;;4.00;;
5559;SDS011;2803;47.916;8.074;2022-12-07T08:50:01;3.63;;;2.80;;
5559;SDS011;2803;47.916;8.074;2022-12-07T08:52:30;5.30;;;3.00;;
5559;SDS011;2803;47.916;8.074;2022-12-07T08:54:58;5.23;;;2.70;;
5559;SDS011;2803;47.916;8.074;2022-12-07T08:57:26;5.47;;;3.20;;
5559;SDS011;2803;47.916;8.074;2022-12-07T08:59:55;6.00;;;2.87;;
5559;SDS011;2803;47.916;8.074;2022-12-07T09:02:23;6.80;;;3.20;;
5559;SDS011;2803;47.916;8.074;2022-12-07T09:04:51;4.37;;;2.70;;
5559;SDS011;2803;47.916;8.074;2022-12-07T09:07:23;5.13;;;3.40;;
5559;SDS011;2803;47.916;8.074;2022-12-07T09:09:50;5.70;;;2.60;;
5559;SDS011;2803;47.916;8.074;2022-12-07T09:12:17;5.13;;;2.57;;
5559;SDS011;2803;47.916;8.074;2022-12-07T09:14:44;5.03;;;3.07;;
5559;SDS011;2803;47.916;8.074;2022-12-07T09:17:11;5.43;;;3.03;;
5559;SDS011;2803;47.916;8.074;2022-12-07T09:19:38;8.13;;;2.70;;
5559;SDS011;2803;47.916;8.074;2022-12-07T09:22:07;5.67;;;3.23;;
5559;SDS011;2803;47.916;8.074;2022-12-07T09:24:36;5.40;;;3.13;;
5559;SDS011;2803;47.916;8.074;2022-12-07T09:27:03;7.53;;;2.93;;
5559;SDS011;2803;47.916;8.074;2022-12-07T09:29:29;4.20;;;2.90;;
5559;SDS011;2803;47.916;8.074;2022-12-07T09:31:56;6.20;;;3.67;;
5559;SDS011;2803;47.916;8.074;2022-12-07T09:34:23;5.23;;;3.13;;
5559;SDS011;2803;47.916;8.074;2022-12-07T09:36:51;6.40;;;3.90;;
5559;SDS011;2803;47.916;8.074;2022-12-07T09:39:18;6.30;;;2.97;;
5559;SDS011;2803;47.916;8.074;2022-12-07T09:41:46;4.77;;;2.97;;
5559;SDS011;2803;47.916;8.074;2022-12-07T09:44:14;4.80;;;3.03;;
5559;SDS011;2803;47.916;8.074;2022-12-07T09:46:45;4.63;;;2.57;;
5559;SDS011;2803;47.916;8.074;2022-12-07T09:49:13;5.07;;;2.77;;
5559;SDS011;2803;47.916;8.074;2022-12-07T09:51:43;9.10;;;3.40;;
5559;SDS011;2803;47.916;8.074;2022-12-07T09:54:11;7.77;;;3.43;;
5559;SDS011;2803;47.916;8.074;2022-12-07T09:56:40;6.23;;;2.97;;
5559;SDS011;2803;47.916;8.074;2022-12-07T09:59:12;3.80;;;2.80;;
5559;SDS011;2803;47.916;8.074;2022-12-07T10:01:43;4.90;;;2.90;;
5559;SDS011;2803;47.916;8.074;2022-12-07T10:04:13;4.43;;;2.90;;
5559;SDS011;2803;47.916;8.074;2022-12-07T10:06:42;4.40;;;3.00;;
5559;SDS011;2803;47.916;8.074;2022-12-07T10:09:10;6.27;;;2.23;;
5559;SDS011;2803;47.916;8.074;2022-12-07T10:14:30;3.40;;;2.37;;
5559;SDS011;2803;47.916;8.074;2022-12-07T10:16:58;3.17;;;2.40;;
5559;SDS011;2803;47.916;8.074;2022-12-07T10:19:26;2.27;;;1.77;;
5559;SDS011;2803;47.916;8.074;2022-12-07T10:24:37;2.63;;;1.57;;
5559;SDS011;2803;47.916;8.074;2022-12-07T10:27:10;2.90;;;2.30;;
5559;SDS011;2803;47.916;8.074;2022-12-07T10:29:48;4.53;;;2.03;;
5559;SDS011;2803;47.916;8.074;2022-12-07T10:32:27;2.00;;;1.80;;
5559;SDS011;2803;47.916;8.074;2022-12-07T10:35:15;2.13;;;1.37;;
5559;SDS011;2803;47.916;8.074;2022-12-07T10:37:47;1.50;;;1.40;;
5559;SDS011;2803;47.916;8.074;2022-12-07T10:43:00;2.03;;;1.77;;
5559;SDS011;2803;47.916;8.074;2022-12-07T10:45:30;3.70;;;2.10;;
5559;SDS011;2803;47.916;8.074;2022-12-07T10:47:59;3.33;;;2.17;;
5559;SDS011;2803;47.916;8.074;2022-12-07T10:50:39;3.80;;;1.90;;
5559;SDS011;2803;47.916;8.074;2022-12-07T10:53:19;1.70;;;1.40;;
5559;SDS011;2803;47.916;8.074;2022-12-07T10:55:56;2.07;;;1.50;;
5559;SDS011;2803;47.916;8.074;2022-12-07T10:58:46;5.03;;;1.97;;
5559;SDS011;2803;47.916;8.074;2022-12-07T11:01:23;3.57;;;1.80;;
5559;SDS011;2803;47.916;8.074;2022-12-07T11:03:56;3.40;;;1.93;;
5559;SDS011;2803;47.916;8.074;2022-12-07T11:06:37;7.70;;;3.20;;
5559;SDS011;2803;47.916;8.074;2022-12-07T11:09:24;9.40;;;2.83;;
5559;SDS011;2803;47.916;8.074;2022-12-07T11:12:05;1.80;;;1.40;;
5559;SDS011;2803;47.916;8.074;2022-12-07T11:14:40;2.47;;;2.07;;
5559;SDS011;2803;47.916;8.074;2022-12-07T11:17:17;6.33;;;3.53;;
5559;SDS011;2803;47.916;8.074;2022-12-07T11:19:55;3.30;;;2.40;;
5559;SDS011;2803;47.916;8.074;2022-12-07T11:22:33;7.90;;;2.90;;
5559;SDS011;2803;47.916;8.074;2022-12-07T11:25:14;4.97;;;2.33;;
5559;SDS011;2803;47.916;8.074;2022-12-07T11:27:47;4.23;;;2.27;;
5559;SDS011;2803;47.916;8.074;2022-12-07T11:30:25;3.50;;;2.50;;
5559;SDS011;2803;47.916;8.074;2022-12-07T11:33:12;4.30;;;2.70;;
5559;SDS011;2803;47.916;8.074;2022-12-07T11:35:55;5.53;;;2.90;;
5559;SDS011;2803;47.916;8.074;2022-12-07T11:38:31;3.13;;;2.30;;
5559;SDS011;2803;47.916;8.074;2022-12-07T11:41:04;5.23;;;2.40;;
5559;SDS011;2803;47.916;8.074;2022-12-07T11:43:42;3.67;;;2.00;;
5559;SDS011;2803;47.916;8.074;2022-12-07T11:46:18;7.03;;;3.00;;
5559;SDS011;2803;47.916;8.074;2022-12-07T11:48:51;5.43;;;2.60;;
5559;SDS011;2803;47.916;8.074;2022-12-07T11:51:24;6.53;;;2.60;;
5559;SDS011;2803;47.916;8.074;2022-12-07T11:53:54;3.50;;;2.07;;
5559;SDS011;2803;47.916;8.074;2022-12-07T11:56:27;4.63;;;2.60;;
5559;SDS011;2803;47.916;8.074;2022-12-07T11:58:55;7.90;;;2.00;;
5559;SDS011;2803;47.916;8.074;2022-12-07T12:01:33;4.20;;;2.77;;
5559;SDS011;2803;47.916;8.074;2022-12-07T12:04:13;4.43;;;2.50;;
5559;SDS011;2803;47.916;8.074;2022-12-07T12:06:48;5.60;;;2.60;;
5559;SDS011;2803;47.916;8.074;2022-12-07T12:09:16;3.63;;;2.17;;
5559;SDS011;2803;47.916;8.074;2022-12-07T12:11:53;9.73;;;2.63;;
5559;SDS011;2803;47.916;8.074;2022-12-07T12:14:35;3.47;;;2.37;;
5559;SDS011;2803;47.916;8.074;2022-12-07T12:17:23;4.83;;;2.60;;
5559;SDS011;2803;47.916;8.074;2022-12-07T12:20:05;3.80;;;2.27;;
5559;SDS011;2803;47.916;8.074;2022-12-07T12:22:47;5.17;;;2.50;;
5559;SDS011;2803;47.916;8.074;2022-12-07T12:25:20;3.80;;;2.37;;
5559;SDS011;2803;47.916;8.074;2022-12-07T12:27:52;4.13;;;2.43;;
5559;SDS011;2803;47.916;8.074;2022-12-07T12:30:26;8.73;;;2.60;;
5559;SDS011;2803;47.916;8.074;2022-12-07T12:33:03;4.80;;;2.87;;
5559;SDS011;2803;47.916;8.074;2022-12-07T12:35:40;3.67;;;2.43;;
5559;SDS011;2803;47.916;8.074;2022-12-07T12:40:53;5.03;;;2.60;;
5559;SDS011;2803;47.916;8.074;2022-12-07T12:55:12;6.23;;;2.50;;
5559;SDS011;2803;47.916;8.074;2022-12-07T12:57:43;2.47;;;1.97;;
5559;SDS011;2803;47.916;8.074;2022-12-07T13:00:15;4.40;;;2.70;;
5559;SDS011;2803;47.916;8.074;2022-12-07T13:02:47;3.80;;;2.20;;
5559;SDS011;2803;47.916;8.074;2022-12-07T13:05:17;4.40;;;2.27;;
5559;SDS011;2803;47.916;8.074;2022-12-07T13:07:52;6.33;;;2.60;;
5559;SDS011;2803;47.916;8.074;2022-12-07T13:10:24;3.60;;;2.17;;
5559;SDS011;2803;47.916;8.074;2022-12-07T13:13:01;3.30;;;2.30;;
5559;SDS011;2803;47.916;8.074;2022-12-07T13:15:34;3.33;;;2.03;;
5559;SDS011;2803;47.916;8.074;2022-12-07T13:18:03;3.77;;;2.67;;
5559;SDS011;2803;47.916;8.074;2022-12-07T13:20:51;3.03;;;2.03;;
5559;SDS011;2803;47.916;8.074;2022-12-07T13:23:21;4.73;;;2.57;;
5559;SDS011;2803;47.916;8.074;2022-12-07T13:25:53;4.50;;;2.87;;
5559;SDS011;2803;47.916;8.074;2022-12-07T13:28:25;4.50;;;2.30;;
5559;SDS011;2803;47.916;8.074;2022-12-07T13:31:04;4.40;;;2.70;;
5559;SDS011;2803;47.916;8.074;2022-12-07T13:33:39;3.90;;;2.20;;
5559;SDS011;2803;47.916;8.074;2022-12-07T13:36:10;5.30;;;2.70;;
5559;SDS011;2803;47.916;8.074;2022-12-07T13:38:49;3.57;;;2.33;;
5559;SDS011;2803;47.916;8.074;2022-12-07T13:41:20;5.43;;;2.70;;
5559;SDS011;2803;47.916;8.074;2022-12-07T13:43:50;3.97;;;2.30;;
5559;SDS011;2803;47.916;8.074;2022-12-07T13:46:21;7.40;;;2.47;;
5559;SDS011;2803;47.916;8.074;2022-12-07T13:48:55;5.97;;;2.80;;
5559;SDS011;2803;47.916;8.074;2022-12-07T13:51:24;3.83;;;2.50;;
5559;SDS011;2803;47.916;8.074;2022-12-07T13:53:54;4.30;;;2.30;;
5559;SDS011;2803;47.916;8.074;2022-12-07T13:56:27;6.33;;;2.30;;
5559;SDS011;2803;47.916;8.074;2022-12-07T13:58:59;4.77;;;2.67;;
5559;SDS011;2803;47.916;8.074;2022-12-07T14:01:27;3.30;;;2.10;;
5559;SDS011;2803;47.916;8.074;2022-12-07T14:03:56;4.87;;;2.87;;
5559;SDS011;2803;47.916;8.074;2022-12-07T14:06:46;7.67;;;2.67;;
5559;SDS011;2803;47.916;8.074;2022-12-07T14:09:19;4.73;;;2.80;;
5559;SDS011;2803;47.916;8.074;2022-12-07T14:11:49;6.00;;;2.70;;
5559;SDS011;2803;47.916;8.074;2022-12-07T14:14:20;3.90;;;2.80;;
5559;SDS011;2803;47.916;8.074;2022-12-07T14:16:56;2.93;;;2.20;;
5559;SDS011;2803;47.916;8.074;2022-12-07T14:22:08;5.67;;;2.60;;
5559;SDS011;2803;47.916;8.074;2022-12-07T14:24:45;4.00;;;2.33;;
5559;SDS011;2803;47.916;8.074;2022-12-07T14:27:17;4.50;;;2.80;;
5559;SDS011;2803;47.916;8.074;2022-12-07T14:29:45;5.40;;;2.97;;
5559;SDS011;2803;47.916;8.074;2022-12-07T14:32:17;5.00;;;3.27;;
5559;SDS011;2803;47.916;8.074;2022-12-07T14:34:56;4.80;;;2.93;;
5559;SDS011;2803;47.916;8.074;2022-12-07T14:37:24;3.30;;;2.40;;
5559;SDS011;2803;47.916;8.074;2022-12-07T14:39:53;12.03;;;3.43;;
5559;SDS011;2803;47.916;8.074;2022-12-07T14:42:20;6.50;;;3.00;;
5559;SDS011;2803;47.916;8.074;2022-12-07T14:44:52;6.80;;;3.50;;
5559;SDS011;2803;47.916;8.074;2022-12-07T14:47:19;4.10;;;2.70;;
5559;SDS011;2803;47.916;8.074;2022-12-07T14:49:46;4.13;;;2.40;;
5559;SDS011;2803;47.916;8.074;2022-12-07T14:52:15;6.20;;;3.33;;
5559;SDS011;2803;47.916;8.074;2022-12-07T14:54:44;3.37;;;2.40;;
5559;SDS011;2803;47.916;8.074;2022-12-07T14:57:12;5.00;;;2.80;;
5559;SDS011;2803;47.916;8.074;2022-12-07T14:59:39;4.80;;;2.70;;
5559;SDS011;2803;47.916;8.074;2022-12-07T15:02:09;5.30;;;2.90;;
5559;SDS011;2803;47.916;8.074;2022-12-07T15:04:39;4.03;;;2.40;;
5559;SDS011;2803;47.916;8.074;2022-12-07T15:07:10;4.97;;;3.00;;
5559;SDS011;2803;47.916;8.074;2022-12-07T15:09:42;8.40;;;2.53;;
5559;SDS011;2803;47.916;8.074;2022-12-07T15:12:13;4.60;;;2.67;;
5559;SDS011;2803;47.916;8.074;2022-12-07T15:14:41;10.43;;;4.10;;
5559;SDS011;2803;47.916;8.074;2022-12-07T15:17:09;6.30;;;3.53;;
5559;SDS011;2803;47.916;8.074;2022-12-07T15:19:38;6.87;;;4.03;;
5559;SDS011;2803;47.916;8.074;2022-12-07T15:22:07;9.03;;;4.33;;
5559;SDS011;2803;47.916;8.074;2022-12-07T15:24:37;10.90;;;5.03;;
5559;SDS011;2803;47.916;8.074;2022-12-07T15:27:06;14.43;;;5.30;;
5559;SDS011;2803;47.916;8.074;2022-12-07T15:29:36;12.90;;;4.83;;
5559;SDS011;2803;47.916;8.074;2022-12-07T15:32:03;11.67;;;5.20;;
5559;SDS011;2803;47.916;8.074;2022-12-07T15:34:30;22.13;;;6.73;;
5559;SDS011;2803;47.916;8.074;2022-12-07T15:36:57;20.07;;;5.70;;
5559;SDS011;2803;47.916;8.074;2022-12-07T15:39:23;18.20;;;6.20;;
5559;SDS011;2803;47.916;8.074;2022-12-07T15:41:50;12.67;;;5.30;;
5559;SDS011;2803;47.916;8.074;2022-12-07T15:44:17;13.77;;;4.50;;
5559;SDS011;2803;47.916;8.074;2022-12-07T15:46:59;10.07;;;4.50;;
5559;SDS011;2803;47.916;8.074;2022-12-07T15:49:27;12.10;;;4.90;;
5559;SDS011;2803;47.916;8.074;2022-12-07T15:51:54;10.43;;;4.47;;
5559;SDS011;2803;47.916;8.074;2022-12-07T15:54:21;13.93;;;5.03;;